JBU1080 EGPH-KBOS
Flight info
| Callsign | JBU1080 |
|---|---|
| Flight time | N/A |
| Altitude | 30000 |
| Route | N0431F300 GOSAM DCT GOW Q602 BRUCE DCT APSOV DCT RESNO/M074F310 NATA JANJO/N0427F320 N712B QUBIS DCT AJJAY OOSHN5 |
| Aircraft | A21N/M-SDE2E3FGHIRWXY/LB1 |
Departure
| Time | 2026-04-26 14:10 |
|---|---|
| Airport | Edinburgh Airport (EGPH) |
Arrival
| Time | N/A |
|---|---|
| Airport | Boston Logan International Airport (KBOS) |
| Time | Latitude | Longitude | Altitude | Speed | Heading |
|---|---|---|---|---|---|
| 2026-04-26 13:13 | 55.94943 | -3.36360 | 122 ft | 0 kts | 148° |
| 2026-04-26 13:59 | 55.94955 | -3.36373 | 117 ft | 4 kts | 149° |
| 2026-04-26 13:59 | 55.94975 | -3.36393 | 117 ft | 4 kts | 152° |
| 2026-04-26 14:00 | 55.94985 | -3.36484 | 116 ft | 4 kts | 55° |
| 2026-04-26 14:00 | 55.94981 | -3.36493 | 117 ft | 0 kts | 58° |
| 2026-04-26 14:03 | 55.94994 | -3.36455 | 117 ft | 6 kts | 58° |
| 2026-04-26 14:03 | 55.95029 | -3.36407 | 120 ft | 7 kts | 16° |
| 2026-04-26 14:04 | 55.95064 | -3.36462 | 120 ft | 8 kts | 272° |
| 2026-04-26 14:04 | 55.95039 | -3.36563 | 116 ft | 10 kts | 233° |
| 2026-04-26 14:04 | 55.94999 | -3.36671 | 121 ft | 11 kts | 236° |
| 2026-04-26 14:04 | 55.94959 | -3.36783 | 118 ft | 11 kts | 244° |
| 2026-04-26 14:05 | 55.94921 | -3.36902 | 118 ft | 12 kts | 239° |
| 2026-04-26 14:05 | 55.94875 | -3.37042 | 120 ft | 14 kts | 239° |
| 2026-04-26 14:05 | 55.94825 | -3.37186 | 119 ft | 14 kts | 237° |
| 2026-04-26 14:05 | 55.94776 | -3.37334 | 119 ft | 14 kts | 243° |
| 2026-04-26 14:06 | 55.94726 | -3.37486 | 117 ft | 14 kts | 238° |
| 2026-04-26 14:06 | 55.94673 | -3.37636 | 120 ft | 14 kts | 237° |
| 2026-04-26 14:06 | 55.94622 | -3.37790 | 120 ft | 15 kts | 242° |
| 2026-04-26 14:06 | 55.94570 | -3.37947 | 119 ft | 15 kts | 238° |
| 2026-04-26 14:07 | 55.94513 | -3.38102 | 118 ft | 15 kts | 236° |
| 2026-04-26 14:07 | 55.94454 | -3.38256 | 117 ft | 15 kts | 234° |
| 2026-04-26 14:07 | 55.94407 | -3.38424 | 120 ft | 15 kts | 240° |
| 2026-04-26 14:07 | 55.94352 | -3.38587 | 119 ft | 15 kts | 238° |
| 2026-04-26 14:08 | 55.94297 | -3.38740 | 120 ft | 10 kts | 238° |
| 2026-04-26 14:08 | 55.94290 | -3.38863 | 121 ft | 11 kts | 301° |
| 2026-04-26 14:08 | 55.94350 | -3.38946 | 119 ft | 11 kts | 331° |
| 2026-04-26 14:08 | 55.94423 | -3.38942 | 116 ft | 12 kts | 48° |
| 2026-04-26 14:09 | 55.94467 | -3.38819 | 119 ft | 13 kts | 58° |
| 2026-04-26 14:09 | 55.94632 | -3.38322 | 117 ft | 83 kts | 57° |
| 2026-04-26 14:09 | 55.95061 | -3.37065 | 116 ft | 154 kts | 60° |
| 2026-04-26 14:09 | 55.95640 | -3.35288 | 717 ft | 166 kts | 59° |
| 2026-04-26 14:10 | 55.96351 | -3.33587 | 1431 ft | 176 kts | 44° |
| 2026-04-26 14:10 | 55.97305 | -3.32073 | 1673 ft | 191 kts | 41° |
| 2026-04-26 14:10 | 55.98345 | -3.30469 | 1995 ft | 204 kts | 40° |
| 2026-04-26 14:10 | 55.99447 | -3.28748 | 2352 ft | 216 kts | 39° |
| 2026-04-26 14:11 | 56.02412 | -3.27515 | 2853 ft | 244 kts | 340° |
| 2026-04-26 14:11 | 56.03869 | -3.29127 | 3156 ft | 252 kts | 307° |
| 2026-04-26 14:11 | 56.04619 | -3.31914 | 3715 ft | 251 kts | 276° |
| 2026-04-26 14:12 | 56.04453 | -3.34987 | 4335 ft | 252 kts | 247° |
| 2026-04-26 14:12 | 56.03430 | -3.37530 | 5009 ft | 256 kts | 224° |
| 2026-04-26 14:12 | 56.02218 | -3.39871 | 5640 ft | 258 kts | 242° |
| 2026-04-26 14:12 | 56.01643 | -3.42918 | 6302 ft | 261 kts | 256° |
| 2026-04-26 14:13 | 56.00904 | -3.49329 | 7501 ft | 268 kts | 264° |
| 2026-04-26 14:13 | 56.00848 | -3.52658 | 8203 ft | 268 kts | 268° |
| 2026-04-26 14:13 | 56.00854 | -3.55994 | 8880 ft | 268 kts | 268° |
| 2026-04-26 14:14 | 56.00861 | -3.59332 | 9534 ft | 269 kts | 267° |
| 2026-04-26 14:14 | 56.00859 | -3.62642 | 10160 ft | 270 kts | 267° |
| 2026-04-26 14:14 | 56.00850 | -3.66038 | 10579 ft | 279 kts | 267° |
| 2026-04-26 14:14 | 56.00832 | -3.69598 | 10805 ft | 294 kts | 267° |
| 2026-04-26 14:15 | 56.00813 | -3.73347 | 11008 ft | 309 kts | 267° |
| 2026-04-26 14:15 | 56.00793 | -3.77291 | 11234 ft | 323 kts | 267° |
| 2026-04-26 14:15 | 56.00775 | -3.81345 | 11694 ft | 328 kts | 268° |
| 2026-04-26 14:15 | 56.00755 | -3.85443 | 12236 ft | 332 kts | 268° |
| 2026-04-26 14:16 | 56.00733 | -3.89582 | 12796 ft | 334 kts | 268° |
| 2026-04-26 14:16 | 56.00711 | -3.93767 | 13358 ft | 337 kts | 268° |
| 2026-04-26 14:16 | 56.00686 | -3.97972 | 13917 ft | 340 kts | 268° |
| 2026-04-26 14:16 | 56.00659 | -4.02226 | 14430 ft | 343 kts | 268° |
| 2026-04-26 14:17 | 56.00635 | -4.06513 | 14942 ft | 345 kts | 268° |
| 2026-04-26 14:17 | 56.00610 | -4.10759 | 15444 ft | 347 kts | 268° |
| 2026-04-26 14:17 | 56.00580 | -4.15094 | 15957 ft | 349 kts | 268° |
| 2026-04-26 14:17 | 56.00547 | -4.19447 | 16456 ft | 352 kts | 268° |
| 2026-04-26 14:18 | 56.00516 | -4.23824 | 16963 ft | 354 kts | 268° |
| 2026-04-26 14:18 | 56.00487 | -4.28242 | 17467 ft | 356 kts | 268° |
| 2026-04-26 14:18 | 56.00454 | -4.32688 | 17976 ft | 359 kts | 268° |
| 2026-04-26 14:18 | 56.00418 | -4.37160 | 18481 ft | 361 kts | 268° |
| 2026-04-26 14:19 | 56.00377 | -4.41654 | 18905 ft | 363 kts | 268° |
| 2026-04-26 14:19 | 56.00331 | -4.46179 | 19339 ft | 365 kts | 268° |
| 2026-04-26 14:19 | 56.00286 | -4.50721 | 19764 ft | 366 kts | 268° |
| 2026-04-26 14:19 | 56.00237 | -4.55283 | 20187 ft | 368 kts | 268° |
| 2026-04-26 14:20 | 56.00188 | -4.59873 | 20616 ft | 370 kts | 268° |
| 2026-04-26 14:20 | 56.00136 | -4.64487 | 21029 ft | 371 kts | 268° |
| 2026-04-26 14:20 | 56.00083 | -4.69114 | 21437 ft | 373 kts | 268° |
| 2026-04-26 14:20 | 56.00026 | -4.73776 | 21832 ft | 375 kts | 268° |
| 2026-04-26 14:21 | 55.99966 | -4.78453 | 22221 ft | 377 kts | 268° |
| 2026-04-26 14:21 | 55.99905 | -4.83154 | 22604 ft | 379 kts | 267° |
| 2026-04-26 14:21 | 55.99843 | -4.87831 | 22975 ft | 381 kts | 268° |
| 2026-04-26 14:21 | 55.99780 | -4.92574 | 23312 ft | 383 kts | 267° |
| 2026-04-26 14:22 | 55.99713 | -4.97345 | 23683 ft | 385 kts | 267° |
| 2026-04-26 14:22 | 55.99643 | -5.02138 | 24010 ft | 387 kts | 267° |
| 2026-04-26 14:22 | 55.99572 | -5.06957 | 24315 ft | 388 kts | 267° |
| 2026-04-26 14:22 | 55.99500 | -5.11768 | 24628 ft | 389 kts | 267° |
| 2026-04-26 14:23 | 55.99424 | -5.16600 | 24936 ft | 390 kts | 267° |
| 2026-04-26 14:23 | 55.99344 | -5.21459 | 25230 ft | 392 kts | 267° |
| 2026-04-26 14:23 | 55.99265 | -5.26328 | 25534 ft | 393 kts | 267° |
| 2026-04-26 14:23 | 55.99183 | -5.31226 | 25832 ft | 394 kts | 266° |
| 2026-04-26 14:24 | 55.99098 | -5.36125 | 26127 ft | 395 kts | 266° |
| 2026-04-26 14:24 | 55.99014 | -5.41020 | 26417 ft | 396 kts | 266° |
| 2026-04-26 14:24 | 55.98925 | -5.45975 | 26709 ft | 398 kts | 266° |
| 2026-04-26 14:24 | 55.98834 | -5.50920 | 26994 ft | 399 kts | 266° |
| 2026-04-26 14:25 | 55.98741 | -5.55880 | 27261 ft | 400 kts | 266° |
| 2026-04-26 14:25 | 55.98644 | -5.60808 | 27526 ft | 401 kts | 266° |
| 2026-04-26 14:25 | 55.98548 | -5.65805 | 27797 ft | 403 kts | 266° |
| 2026-04-26 14:25 | 55.98451 | -5.70814 | 28044 ft | 404 kts | 266° |
| 2026-04-26 14:26 | 55.98383 | -5.74209 | 28199 ft | 406 kts | 266° |
| 2026-04-26 14:26 | 55.98276 | -5.79262 | 28430 ft | 407 kts | 266° |
| 2026-04-26 14:26 | 55.98160 | -5.84246 | 28673 ft | 408 kts | 265° |
| 2026-04-26 14:26 | 55.98042 | -5.89342 | 28925 ft | 410 kts | 265° |
| 2026-04-26 14:27 | 55.97928 | -5.94438 | 29163 ft | 411 kts | 265° |
| 2026-04-26 14:27 | 55.97811 | -5.99553 | 29414 ft | 412 kts | 265° |
| 2026-04-26 14:27 | 55.97693 | -6.04671 | 29730 ft | 411 kts | 265° |
| 2026-04-26 14:27 | 55.97578 | -6.09760 | 30052 ft | 410 kts | 265° |
| 2026-04-26 14:28 | 55.97458 | -6.14840 | 30293 ft | 410 kts | 265° |
| 2026-04-26 14:28 | 55.97222 | -6.25047 | 30318 ft | 411 kts | 265° |
| 2026-04-26 14:29 | 55.96983 | -6.35240 | 30298 ft | 411 kts | 265° |
| 2026-04-26 14:29 | 55.96717 | -6.45380 | 30294 ft | 410 kts | 265° |
| 2026-04-26 14:30 | 55.96436 | -6.55549 | 30288 ft | 410 kts | 265° |
| 2026-04-26 14:30 | 55.96155 | -6.65723 | 30298 ft | 410 kts | 265° |
| 2026-04-26 14:31 | 55.95882 | -6.75916 | 30293 ft | 410 kts | 265° |
| 2026-04-26 14:31 | 55.95589 | -6.86087 | 30292 ft | 411 kts | 265° |
| 2026-04-26 14:32 | 55.95289 | -6.96229 | 30295 ft | 411 kts | 265° |
| 2026-04-26 14:32 | 55.94975 | -7.06413 | 30292 ft | 411 kts | 265° |
| 2026-04-26 14:33 | 55.94650 | -7.16583 | 30289 ft | 411 kts | 265° |
| 2026-04-26 14:33 | 55.94320 | -7.26764 | 30289 ft | 411 kts | 264° |
| 2026-04-26 14:34 | 55.93980 | -7.36939 | 30299 ft | 411 kts | 264° |
| 2026-04-26 14:34 | 55.93635 | -7.47058 | 30293 ft | 408 kts | 264° |
| 2026-04-26 14:35 | 55.93274 | -7.57164 | 30287 ft | 408 kts | 264° |
| 2026-04-26 14:35 | 55.92901 | -7.67261 | 30287 ft | 408 kts | 264° |
| 2026-04-26 14:36 | 55.92531 | -7.77351 | 30288 ft | 408 kts | 264° |
| 2026-04-26 14:36 | 55.92174 | -7.87463 | 30286 ft | 408 kts | 264° |
| 2026-04-26 14:37 | 55.91793 | -7.97537 | 30289 ft | 406 kts | 264° |
| 2026-04-26 14:37 | 55.91398 | -8.07598 | 30281 ft | 406 kts | 264° |
| 2026-04-26 14:38 | 55.91001 | -8.17586 | 30281 ft | 406 kts | 264° |
| 2026-04-26 14:38 | 55.90594 | -8.27636 | 30279 ft | 406 kts | 264° |
| 2026-04-26 14:39 | 55.90178 | -8.37659 | 30283 ft | 406 kts | 264° |
| 2026-04-26 14:39 | 55.89754 | -8.47699 | 30280 ft | 406 kts | 264° |
| 2026-04-26 14:40 | 55.89322 | -8.57720 | 30283 ft | 405 kts | 264° |
| 2026-04-26 14:40 | 55.88884 | -8.67737 | 30278 ft | 405 kts | 264° |
| 2026-04-26 14:41 | 55.88435 | -8.77741 | 30275 ft | 405 kts | 264° |
| 2026-04-26 14:41 | 55.87977 | -8.87734 | 30277 ft | 404 kts | 264° |
| 2026-04-26 14:42 | 55.87514 | -8.97662 | 30278 ft | 404 kts | 264° |
| 2026-04-26 14:42 | 55.87040 | -9.07639 | 30271 ft | 404 kts | 264° |
| 2026-04-26 14:43 | 55.86564 | -9.17592 | 30270 ft | 403 kts | 264° |
| 2026-04-26 14:43 | 55.86079 | -9.27542 | 30273 ft | 403 kts | 264° |
| 2026-04-26 14:44 | 55.85585 | -9.37502 | 30274 ft | 403 kts | 264° |
| 2026-04-26 14:44 | 55.85077 | -9.47443 | 30269 ft | 403 kts | 264° |
| 2026-04-26 14:45 | 55.84571 | -9.57389 | 30271 ft | 403 kts | 264° |
| 2026-04-26 14:45 | 55.84056 | -9.67312 | 30276 ft | 400 kts | 264° |
| 2026-04-26 14:46 | 55.83534 | -9.77166 | 30268 ft | 400 kts | 264° |
| 2026-04-26 14:46 | 55.83005 | -9.87014 | 30266 ft | 400 kts | 264° |
| 2026-04-26 14:47 | 55.82471 | -9.96812 | 30266 ft | 400 kts | 264° |
| 2026-04-26 14:47 | 55.81401 | -10.06505 | 30267 ft | 400 kts | 256° |
| 2026-04-26 14:48 | 55.80019 | -10.16092 | 30263 ft | 400 kts | 256° |
| 2026-04-26 14:48 | 55.78642 | -10.25673 | 30258 ft | 399 kts | 257° |
| 2026-04-26 14:49 | 55.77267 | -10.35234 | 30262 ft | 399 kts | 256° |
| 2026-04-26 14:49 | 55.75893 | -10.44741 | 30263 ft | 399 kts | 256° |
| 2026-04-26 14:50 | 55.74501 | -10.54309 | 30261 ft | 399 kts | 256° |
| 2026-04-26 14:50 | 55.73103 | -10.63861 | 30260 ft | 399 kts | 256° |
| 2026-04-26 14:51 | 55.71696 | -10.73396 | 30255 ft | 400 kts | 256° |
| 2026-04-26 14:51 | 55.70281 | -10.82949 | 30261 ft | 400 kts | 256° |
| 2026-04-26 14:52 | 55.68853 | -10.92496 | 30259 ft | 400 kts | 256° |
| 2026-04-26 14:52 | 55.67431 | -11.01972 | 30257 ft | 401 kts | 256° |
| 2026-04-26 14:53 | 55.65992 | -11.11512 | 30257 ft | 400 kts | 256° |
| 2026-04-26 14:53 | 55.64547 | -11.21039 | 30258 ft | 400 kts | 256° |
| 2026-04-26 14:54 | 55.63092 | -11.30566 | 30257 ft | 401 kts | 256° |
| 2026-04-26 14:54 | 55.61625 | -11.40103 | 30258 ft | 401 kts | 256° |
| 2026-04-26 14:55 | 55.60142 | -11.49620 | 30260 ft | 401 kts | 256° |
| 2026-04-26 14:55 | 55.58652 | -11.59142 | 30259 ft | 401 kts | 256° |
| 2026-04-26 14:56 | 55.57164 | -11.68657 | 30258 ft | 401 kts | 256° |
| 2026-04-26 14:56 | 55.55670 | -11.78168 | 30257 ft | 401 kts | 256° |
| 2026-04-26 14:57 | 55.54170 | -11.87673 | 30255 ft | 401 kts | 256° |
| 2026-04-26 14:57 | 55.52663 | -11.97172 | 30258 ft | 402 kts | 256° |
| 2026-04-26 14:58 | 55.51141 | -12.06658 | 30255 ft | 402 kts | 256° |
| 2026-04-26 14:58 | 55.49628 | -12.16089 | 30256 ft | 402 kts | 256° |
| 2026-04-26 14:59 | 55.48108 | -12.25558 | 30261 ft | 402 kts | 256° |
| 2026-04-26 14:59 | 55.46568 | -12.35031 | 30258 ft | 403 kts | 255° |
| 2026-04-26 15:00 | 55.45006 | -12.44525 | 30259 ft | 403 kts | 256° |
| 2026-04-26 15:00 | 55.43459 | -12.54029 | 30262 ft | 403 kts | 256° |
| 2026-04-26 15:01 | 55.41898 | -12.63511 | 30252 ft | 404 kts | 255° |
| 2026-04-26 15:01 | 55.40320 | -12.73004 | 30256 ft | 404 kts | 255° |
| 2026-04-26 15:02 | 55.38736 | -12.82479 | 30258 ft | 404 kts | 255° |
| 2026-04-26 15:02 | 55.37140 | -12.91990 | 30258 ft | 406 kts | 256° |
| 2026-04-26 15:03 | 55.35528 | -13.01531 | 30260 ft | 407 kts | 255° |
| 2026-04-26 15:03 | 55.33911 | -13.11055 | 30261 ft | 407 kts | 255° |
| 2026-04-26 15:04 | 55.32294 | -13.20509 | 30260 ft | 407 kts | 255° |
| 2026-04-26 15:04 | 55.30661 | -13.30017 | 30261 ft | 407 kts | 255° |
| 2026-04-26 15:05 | 55.29020 | -13.39525 | 30258 ft | 409 kts | 256° |
| 2026-04-26 15:05 | 55.27360 | -13.49103 | 30261 ft | 410 kts | 256° |
| 2026-04-26 15:06 | 55.25688 | -13.58667 | 30259 ft | 410 kts | 256° |
| 2026-04-26 15:06 | 55.24016 | -13.68222 | 30258 ft | 410 kts | 256° |
| 2026-04-26 15:07 | 55.21778 | -13.80916 | 30259 ft | 410 kts | 256° |
| 2026-04-26 15:07 | 55.20082 | -13.90464 | 30254 ft | 411 kts | 257° |
| 2026-04-26 15:08 | 55.18378 | -14.00021 | 30264 ft | 411 kts | 257° |
| 2026-04-26 15:08 | 55.16663 | -14.09574 | 30266 ft | 411 kts | 257° |
| 2026-04-26 15:09 | 55.14935 | -14.19115 | 30269 ft | 411 kts | 257° |
| 2026-04-26 15:09 | 55.13196 | -14.28651 | 30269 ft | 411 kts | 257° |
| 2026-04-26 15:10 | 55.11752 | -14.36561 | 30302 ft | 412 kts | 257° |
| 2026-04-26 15:10 | 55.10579 | -14.42942 | 30564 ft | 412 kts | 258° |
| 2026-04-26 15:10 | 55.09703 | -14.47703 | 30778 ft | 412 kts | 258° |
| 2026-04-26 15:11 | 55.08837 | -14.52407 | 30960 ft | 412 kts | 258° |
| 2026-04-26 15:11 | 55.07958 | -14.57172 | 31128 ft | 413 kts | 258° |
| 2026-04-26 15:11 | 55.07072 | -14.61961 | 31284 ft | 414 kts | 258° |
| 2026-04-26 15:11 | 55.06183 | -14.66760 | 31460 ft | 415 kts | 258° |
| 2026-04-26 15:12 | 55.05292 | -14.71549 | 31615 ft | 416 kts | 258° |
| 2026-04-26 15:12 | 55.04396 | -14.76365 | 31766 ft | 417 kts | 258° |
| 2026-04-26 15:12 | 55.03502 | -14.81175 | 31913 ft | 418 kts | 258° |
| 2026-04-26 15:12 | 55.02604 | -14.86003 | 32056 ft | 418 kts | 258° |
| 2026-04-26 15:13 | 55.01701 | -14.90833 | 32198 ft | 418 kts | 258° |
| 2026-04-26 15:13 | 55.01011 | -14.95719 | 32296 ft | 411 kts | 268° |
| 2026-04-26 15:13 | 55.01245 | -15.05411 | 32282 ft | 396 kts | 288° |
| 2026-04-26 15:14 | 55.03116 | -15.14303 | 32265 ft | 393 kts | 295° |
| 2026-04-26 15:14 | 55.05147 | -15.23167 | 32262 ft | 393 kts | 294° |
| 2026-04-26 15:15 | 55.07143 | -15.32047 | 32265 ft | 393 kts | 294° |
| 2026-04-26 15:15 | 55.09133 | -15.40946 | 32256 ft | 393 kts | 294° |
| 2026-04-26 15:16 | 55.11097 | -15.49859 | 32262 ft | 393 kts | 294° |
| 2026-04-26 15:16 | 55.13050 | -15.58753 | 32259 ft | 390 kts | 294° |
| 2026-04-26 15:17 | 55.14679 | -15.66172 | 32264 ft | 390 kts | 294° |
| 2026-04-26 15:17 | 55.16928 | -15.76473 | 32265 ft | 390 kts | 294° |
| 2026-04-26 15:18 | 55.18858 | -15.85344 | 32261 ft | 390 kts | 294° |
| 2026-04-26 15:18 | 55.20769 | -15.94221 | 32263 ft | 390 kts | 294° |
| 2026-04-26 15:19 | 55.22674 | -16.03068 | 32259 ft | 390 kts | 294° |
| 2026-04-26 15:19 | 55.24581 | -16.11971 | 32284 ft | 388 kts | 294° |
| 2026-04-26 15:20 | 55.26463 | -16.20794 | 32234 ft | 386 kts | 294° |
| 2026-04-26 15:20 | 55.28340 | -16.29616 | 32258 ft | 386 kts | 294° |
| 2026-04-26 15:21 | 55.30215 | -16.38455 | 32258 ft | 386 kts | 294° |
| 2026-04-26 15:21 | 55.32081 | -16.47305 | 32259 ft | 386 kts | 294° |
| 2026-04-26 15:22 | 55.33929 | -16.56109 | 32259 ft | 386 kts | 294° |
| 2026-04-26 15:22 | 55.35779 | -16.64978 | 32257 ft | 386 kts | 294° |
| 2026-04-26 15:23 | 55.37629 | -16.73858 | 32254 ft | 386 kts | 294° |
| 2026-04-26 15:23 | 55.39475 | -16.82746 | 32251 ft | 386 kts | 294° |
| 2026-04-26 15:24 | 55.41309 | -16.91621 | 32259 ft | 384 kts | 293° |
| 2026-04-26 15:24 | 55.43119 | -17.00437 | 32250 ft | 383 kts | 293° |
| 2026-04-26 15:25 | 55.44617 | -17.07785 | 32238 ft | 383 kts | 293° |
| 2026-04-26 15:25 | 55.46718 | -17.18104 | 32242 ft | 383 kts | 293° |
| 2026-04-26 15:26 | 55.48513 | -17.26950 | 32243 ft | 383 kts | 292° |
| 2026-04-26 15:26 | 55.50306 | -17.35810 | 32236 ft | 383 kts | 292° |
| 2026-04-26 15:27 | 55.52092 | -17.44672 | 32234 ft | 383 kts | 292° |